Time;durP1;ratioP1;P1;durP2;ratioP2;P2;SDS_P1;SDS_P2;PMS_P1;PMS_P2;Temp;Humidity;BMP_temperature;BMP_pressure;BME280_temperature;BME280_humidity;BME280_pressure;Samples;Min_cycle;Max_cycle;Signal;HPM_P1;HPM_P2
2023/10/13 00:00:30;;;;;;;0.00;0.00;;;;;;;;;;1741603;28;20261;-62
2023/10/13 00:01:22;;;;;;;0.00;0.00;;;;;;;;;;1740022;28;20636;-64
2023/10/13 00:02:14;;;;;;;0.00;0.00;;;;;;;;;;1741447;28;20231;-62
2023/10/13 00:03:05;;;;;;;0.00;0.00;;;;;;;;;;1741837;28;20748;-63
2023/10/13 00:03:57;;;;;;;0.00;0.00;;;;;;;;;;1740594;28;20199;-63
2023/10/13 00:04:49;;;;;;;0.00;0.00;;;;;;;;;;1745994;28;20246;-63
2023/10/13 00:05:41;;;;;;;0.00;0.00;;;;;;;;;;1740499;28;20729;-63
2023/10/13 00:06:34;;;;;;;0.00;0.00;;;;;;;;;;1745812;28;20726;-63
2023/10/13 00:07:25;;;;;;;0.00;0.00;;;;;;;;;;1742583;28;20211;-64
2023/10/13 00:08:17;;;;;;;0.00;0.00;;;;;;;;;;1741687;28;20205;-64
2023/10/13 00:09:14;;;;;;;0.00;0.00;;;;;;;;;;1741705;28;20214;-63
2023/10/13 00:10:14;;;;;;;0.00;0.00;;;;;;;;;;1741371;28;20194;-62
2023/10/13 00:11:09;;;;;;;0.00;0.00;;;;;;;;;;1741621;28;20281;-63
2023/10/13 00:12:03;;;;;;;0.00;0.00;;;;;;;;;;1740939;28;20836;-63
2023/10/13 00:12:54;;;;;;;0.00;0.00;;;;;;;;;;1740465;28;20215;-63
2023/10/13 00:13:50;;;;;;;0.00;0.00;;;;;;;;;;1739978;28;20624;-62
2023/10/13 00:14:41;;;;;;;0.00;0.00;;;;;;;;;;1738749;28;20243;-63
2023/10/13 00:15:38;;;;;;;0.00;0.00;;;;;;;;;;1741572;28;20235;-63
2023/10/13 00:16:30;;;;;;;0.00;0.00;;;;;;;;;;1741270;28;20207;-62
2023/10/13 00:17:24;;;;;;;0.00;0.00;;;;;;;;;;1741282;28;20228;-64
2023/10/13 00:18:16;;;;;;;0.00;0.00;;;;;;;;;;1741584;28;20198;-63
2023/10/13 00:19:13;;;;;;;0.00;0.00;;;;;;;;;;1741582;28;20202;-63
2023/10/13 00:20:11;;;;;;;0.00;0.00;;;;;;;;;;1741673;28;20206;-66
2023/10/13 00:21:12;;;;;;;0.00;0.00;;;;;;;;;;1741762;28;20582;-63
2023/10/13 00:22:09;;;;;;;0.00;0.00;;;;;;;;;;1741604;28;20566;-62
2023/10/13 00:23:01;;;;;;;0.00;0.00;;;;;;;;;;1740983;28;20206;-63
2023/10/13 00:23:53;;;;;;;0.00;0.00;;;;;;;;;;1739952;28;20213;-62
2023/10/13 00:24:45;;;;;;;0.00;0.00;;;;;;;;;;1740170;28;20218;-62
2023/10/13 00:25:43;;;;;;;0.00;0.00;;;;;;;;;;1740680;28;20207;-65
2023/10/13 00:26:36;;;;;;;0.00;0.00;;;;;;;;;;1741643;28;20455;-63
2023/10/13 00:27:29;;;;;;;0.00;0.00;;;;;;;;;;1741569;28;20202;-62
2023/10/13 00:28:23;;;;;;;0.00;0.00;;;;;;;;;;1741552;28;20633;-63
2023/10/13 00:29:16;;;;;;;0.00;0.00;;;;;;;;;;1741305;28;20198;-62
2023/10/13 00:30:21;;;;;;;0.00;0.00;;;;;;;;;;1741318;28;20213;-62
2023/10/13 00:31:14;;;;;;;0.00;0.00;;;;;;;;;;1741458;28;20626;-62
2023/10/13 00:32:11;;;;;;;0.00;0.00;;;;;;;;;;1741456;28;20688;-63
2023/10/13 00:33:04;;;;;;;0.00;0.00;;;;;;;;;;1741175;28;20222;-63
2023/10/13 00:34:01;;;;;;;0.00;0.00;;;;;;;;;;1739710;28;20222;-62
2023/10/13 00:34:56;;;;;;;0.00;0.00;;;;;;;;;;1740197;28;20214;-62
2023/10/13 00:35:47;;;;;;;0.00;0.00;;;;;;;;;;1745012;28;20237;-63
2023/10/13 00:36:48;;;;;;;0.00;0.00;;;;;;;;;;1740957;28;20681;-63
2023/10/13 00:37:43;;;;;;;0.00;0.00;;;;;;;;;;1738268;28;20245;-63
2023/10/13 00:38:35;;;;;;;0.00;0.00;;;;;;;;;;1741384;28;20203;-62
2023/10/13 00:39:28;;;;;;;0.00;0.00;;;;;;;;;;1741362;28;20728;-62
2023/10/13 00:40:41;;;;;;;0.00;0.00;;;;;;;;;;1741330;28;20210;-64
2023/10/13 00:41:50;;;;;;;0.00;0.00;;;;;;;;;;1741531;28;20207;-63
2023/10/13 00:42:50;;;;;;;0.00;0.00;;;;;;;;;;1738604;28;20692;-62
2023/10/13 00:43:45;;;;;;;0.00;0.00;;;;;;;;;;1739982;28;20277;-63
2023/10/13 00:44:41;;;;;;;0.00;0.00;;;;;;;;;;1738666;28;20217;-63
2023/10/13 00:45:35;;;;;;;0.00;0.00;;;;;;;;;;1741350;28;20234;-63
2023/10/13 00:46:33;;;;;;;0.00;0.00;;;;;;;;;;1741438;28;20245;-63
2023/10/13 00:47:37;;;;;;;0.00;0.00;;;;;;;;;;1741022;28;20198;-63
2023/10/13 00:48:33;;;;;;;0.00;0.00;;;;;;;;;;1741560;28;20214;-62
2023/10/13 00:49:24;;;;;;;0.00;0.00;;;;;;;;;;1741675;28;20202;-63
2023/10/13 00:50:17;;;;;;;0.00;0.00;;;;;;;;;;1741320;28;20207;-63
2023/10/13 00:51:16;;;;;;;0.00;0.00;;;;;;;;;;1741673;28;20202;-63
2023/10/13 00:52:10;;;;;;;0.00;0.00;;;;;;;;;;1741660;28;20610;-62
2023/10/13 00:53:02;;;;;;;0.00;0.00;;;;;;;;;;1742279;28;20564;-63
2023/10/13 00:53:53;;;;;;;0.00;0.00;;;;;;;;;;1739866;28;20213;-64
2023/10/13 00:54:46;;;;;;;0.00;0.00;;;;;;;;;;1740266;28;20253;-62
2023/10/13 00:55:41;;;;;;;0.00;0.00;;;;;;;;;;1740675;28;20650;-63
2023/10/13 00:56:32;;;;;;;0.00;0.00;;;;;;;;;;1741829;28;20324;-63
2023/10/13 00:57:26;;;;;;;0.00;0.00;;;;;;;;;;1741411;28;20202;-62
2023/10/13 00:58:22;;;;;;;0.00;0.00;;;;;;;;;;1742697;28;20211;-62
2023/10/13 00:59:14;;;;;;;0.00;0.00;;;;;;;;;;1744517;28;20225;-62
2023/10/13 01:00:18;;;;;;;0.00;0.00;;;;;;;;;;1741585;28;20214;-61
2023/10/13 01:01:17;;;;;;;0.00;0.00;;;;;;;;;;1739370;28;20733;-63
2023/10/13 01:03:15;;;;;;;0.00;0.00;;;;;;;;;;1741585;28;20234;-63
2023/10/13 01:04:08;;;;;;;0.00;0.00;;;;;;;;;;1741261;28;20241;-63
2023/10/13 01:04:59;;;;;;;0.00;0.00;;;;;;;;;;1740729;28;20206;-62
2023/10/13 01:05:54;;;;;;;0.00;0.00;;;;;;;;;;1740259;28;20207;-63
2023/10/13 01:06:46;;;;;;;0.00;0.00;;;;;;;;;;1740769;28;20248;-62
2023/10/13 01:07:37;;;;;;;0.00;0.00;;;;;;;;;;1741388;28;20215;-63
2023/10/13 01:08:34;;;;;;;0.00;0.00;;;;;;;;;;1741528;28;20202;-62
2023/10/13 01:09:25;;;;;;;0.00;0.00;;;;;;;;;;1744157;28;20267;-62
2023/10/13 01:10:19;;;;;;;0.00;0.00;;;;;;;;;;1744998;28;20389;-62
2023/10/13 01:11:10;;;;;;;0.00;0.00;;;;;;;;;;1745167;28;20283;-62
2023/10/13 01:12:02;;;;;;;0.00;0.00;;;;;;;;;;1740672;28;20246;-62
2023/10/13 01:12:53;;;;;;;0.00;0.00;;;;;;;;;;1740323;28;20296;-63
2023/10/13 01:13:51;;;;;;;0.00;0.00;;;;;;;;;;1739975;28;20257;-63
2023/10/13 01:14:42;;;;;;;0.00;0.00;;;;;;;;;;1742552;28;20206;-62
2023/10/13 01:15:33;;;;;;;0.00;0.00;;;;;;;;;;1741667;28;20210;-62
2023/10/13 01:16:26;;;;;;;0.00;0.00;;;;;;;;;;1741368;28;20693;-61
2023/10/13 01:17:18;;;;;;;0.00;0.00;;;;;;;;;;1741200;28;20627;-66
2023/10/13 01:18:11;;;;;;;0.00;0.00;;;;;;;;;;1742287;28;20206;-66
2023/10/13 01:19:05;;;;;;;0.00;0.00;;;;;;;;;;1740702;28;20227;-63
2023/10/13 01:19:58;;;;;;;0.00;0.00;;;;;;;;;;1740573;28;20211;-62
2023/10/13 01:20:52;;;;;;;0.00;0.00;;;;;;;;;;1740087;28;20650;-63
2023/10/13 01:21:44;;;;;;;0.00;0.00;;;;;;;;;;1740385;28;20218;-62
2023/10/13 01:22:36;;;;;;;0.00;0.00;;;;;;;;;;1741787;28;20207;-63
2023/10/13 01:23:28;;;;;;;0.00;0.00;;;;;;;;;;1743559;28;20210;-62
2023/10/13 01:24:23;;;;;;;0.00;0.00;;;;;;;;;;1743819;28;20813;-63
2023/10/13 01:25:19;;;;;;;0.00;0.00;;;;;;;;;;1742769;28;20210;-62
2023/10/13 01:26:12;;;;;;;0.00;0.00;;;;;;;;;;1743643;28;20818;-62
2023/10/13 01:27:16;;;;;;;0.00;0.00;;;;;;;;;;1742179;28;20199;-63
2023/10/13 01:28:09;;;;;;;0.00;0.00;;;;;;;;;;1745391;28;20569;-63
2023/10/13 01:29:00;;;;;;;0.00;0.00;;;;;;;;;;1741265;28;20586;-62
2023/10/13 01:29:58;;;;;;;0.00;0.00;;;;;;;;;;1741921;28;20215;-63
2023/10/13 01:30:50;;;;;;;0.10;0.10;;;;;;;;;;1741840;28;20230;-62
2023/10/13 01:31:48;;;;;;;0.00;0.00;;;;;;;;;;1741927;28;20203;-62
2023/10/13 01:32:45;;;;;;;0.00;0.00;;;;;;;;;;1739619;28;20242;-66
2023/10/13 01:33:36;;;;;;;0.00;0.00;;;;;;;;;;1742358;28;20590;-63
2023/10/13 01:34:27;;;;;;;0.00;0.00;;;;;;;;;;1743266;28;20256;-62
2023/10/13 01:35:24;;;;;;;0.00;0.00;;;;;;;;;;1742823;28;20248;-63
2023/10/13 01:36:16;;;;;;;0.00;0.00;;;;;;;;;;1743226;28;20610;-62
2023/10/13 01:37:07;;;;;;;0.00;0.00;;;;;;;;;;1742723;28;20229;-62
2023/10/13 01:37:58;;;;;;;0.00;0.00;;;;;;;;;;1746048;28;20249;-63
2023/10/13 01:38:51;;;;;;;0.00;0.00;;;;;;;;;;1741589;28;20725;-63
2023/10/13 01:39:47;;;;;;;0.00;0.00;;;;;;;;;;1741754;28;20310;-62
2023/10/13 01:40:38;;;;;;;0.00;0.00;;;;;;;;;;1738964;28;20211;-66
2023/10/13 01:41:30;;;;;;;0.00;0.00;;;;;;;;;;1743044;28;20241;-62
2023/10/13 01:42:24;;;;;;;0.00;0.00;;;;;;;;;;1743557;28;20206;-63
2023/10/13 01:43:17;;;;;;;0.00;0.00;;;;;;;;;;1745899;28;20208;-62
2023/10/13 01:44:11;;;;;;;0.00;0.00;;;;;;;;;;1740169;28;20230;-62
2023/10/13 01:45:05;;;;;;;0.00;0.00;;;;;;;;;;1746379;28;20210;-64
2023/10/13 01:45:57;;;;;;;0.00;0.00;;;;;;;;;;1741390;28;20206;-62
2023/10/13 01:46:48;;;;;;;0.00;0.00;;;;;;;;;;1741512;28;20211;-62
2023/10/13 01:47:39;;;;;;;0.00;0.00;;;;;;;;;;1742583;28;20503;-62
2023/10/13 01:48:32;;;;;;;0.00;0.00;;;;;;;;;;1742781;28;20620;-63
2023/10/13 01:49:24;;;;;;;0.00;0.00;;;;;;;;;;1743403;28;20481;-63
2023/10/13 01:50:20;;;;;;;0.00;0.00;;;;;;;;;;1742720;28;20656;-62
2023/10/13 01:51:11;;;;;;;0.00;0.00;;;;;;;;;;1743648;28;20191;-62
2023/10/13 01:52:04;;;;;;;0.00;0.00;;;;;;;;;;1741747;28;20281;-63
2023/10/13 01:53:05;;;;;;;0.00;0.00;;;;;;;;;;1743041;28;20211;-63
2023/10/13 01:53:58;;;;;;;0.00;0.00;;;;;;;;;;1741575;28;20724;-63
2023/10/13 01:54:50;;;;;;;0.00;0.00;;;;;;;;;;1741835;28;20222;-63
2023/10/13 01:55:43;;;;;;;0.00;0.00;;;;;;;;;;1741969;28;20238;-63
2023/10/13 01:56:42;;;;;;;0.00;0.00;;;;;;;;;;1739327;28;20869;-62
2023/10/13 01:57:33;;;;;;;0.00;0.00;;;;;;;;;;1743383;28;20264;-62
2023/10/13 01:58:26;;;;;;;0.00;0.00;;;;;;;;;;1742982;28;20568;-62
2023/10/13 01:59:18;;;;;;;0.00;0.00;;;;;;;;;;1743202;28;20213;-62
2023/10/13 02:00:18;;;;;;;0.00;0.00;;;;;;;;;;1743012;28;20259;-62
2023/10/13 02:01:10;;;;;;;0.00;0.00;;;;;;;;;;1743068;28;20249;-63
2023/10/13 02:02:02;;;;;;;0.00;0.00;;;;;;;;;;1741704;28;20215;-63
2023/10/13 02:02:53;;;;;;;0.00;0.00;;;;;;;;;;1741804;28;20239;-63
2023/10/13 02:03:47;;;;;;;0.00;0.00;;;;;;;;;;1741570;28;20738;-63
2023/10/13 02:04:48;;;;;;;0.00;0.00;;;;;;;;;;1742510;28;20297;-62
2023/10/13 02:05:42;;;;;;;0.00;0.00;;;;;;;;;;1738871;28;20207;-62
2023/10/13 02:06:36;;;;;;;0.00;0.00;;;;;;;;;;1743292;28;20211;-63
2023/10/13 02:07:29;;;;;;;0.00;0.00;;;;;;;;;;1743169;28;20206;-62
2023/10/13 02:08:23;;;;;;;0.00;0.00;;;;;;;;;;1743274;28;20214;-62
2023/10/13 02:09:25;;;;;;;0.00;0.00;;;;;;;;;;1744986;28;20198;-63
2023/10/13 02:10:23;;;;;;;0.00;0.00;;;;;;;;;;1743616;28;20352;-62
2023/10/13 02:11:15;;;;;;;0.00;0.00;;;;;;;;;;1745952;28;20702;-63
2023/10/13 02:12:06;;;;;;;0.00;0.00;;;;;;;;;;1742317;28;20580;-63
2023/10/13 02:12:57;;;;;;;0.00;0.00;;;;;;;;;;1741737;28;20289;-62
2023/10/13 02:13:51;;;;;;;0.00;0.00;;;;;;;;;;1741711;28;20673;-62
2023/10/13 02:14:42;;;;;;;0.00;0.00;;;;;;;;;;1739329;28;20218;-63
2023/10/13 02:15:34;;;;;;;0.00;0.00;;;;;;;;;;1742975;28;20443;-62
2023/10/13 02:16:26;;;;;;;0.00;0.00;;;;;;;;;;1742417;28;20229;-63
2023/10/13 02:17:21;;;;;;;0.00;0.00;;;;;;;;;;1742083;28;20333;-62
2023/10/13 02:18:20;;;;;;;0.00;0.00;;;;;;;;;;1743464;28;20218;-63
2023/10/13 02:19:15;;;;;;;0.00;0.00;;;;;;;;;;1742884;28;20194;-63
2023/10/13 02:20:08;;;;;;;0.00;0.00;;;;;;;;;;1742316;28;20205;-65
2023/10/13 02:21:04;;;;;;;0.00;0.00;;;;;;;;;;1745947;28;20206;-63
2023/10/13 02:21:58;;;;;;;0.00;0.00;;;;;;;;;;1741568;28;20208;-62
2023/10/13 02:22:49;;;;;;;0.00;0.00;;;;;;;;;;1742031;28;20327;-63
2023/10/13 02:23:44;;;;;;;0.00;0.00;;;;;;;;;;1741831;28;20567;-62
2023/10/13 02:24:39;;;;;;;0.00;0.00;;;;;;;;;;1741872;28;20339;-62
2023/10/13 02:25:35;;;;;;;0.00;0.00;;;;;;;;;;1743154;28;20676;-62
2023/10/13 02:26:30;;;;;;;0.00;0.00;;;;;;;;;;1743354;28;20223;-64
2023/10/13 02:27:23;;;;;;;0.00;0.00;;;;;;;;;;1742872;28;20206;-63
2023/10/13 02:28:21;;;;;;;0.00;0.00;;;;;;;;;;1745696;28;20257;-63
2023/10/13 02:29:13;;;;;;;0.00;0.00;;;;;;;;;;1743208;28;20210;-63
2023/10/13 02:30:05;;;;;;;0.00;0.00;;;;;;;;;;1741665;28;20210;-63
2023/10/13 02:30:57;;;;;;;0.00;0.00;;;;;;;;;;1742111;28;20222;-65
2023/10/13 02:31:55;;;;;;;0.00;0.00;;;;;;;;;;1745661;28;20226;-62
2023/10/13 02:32:48;;;;;;;0.00;0.00;;;;;;;;;;1742245;28;20215;-62
2023/10/13 02:33:44;;;;;;;0.00;0.00;;;;;;;;;;1742271;28;20206;-62
2023/10/13 02:34:35;;;;;;;0.00;0.00;;;;;;;;;;1743396;28;20899;-63
2023/10/13 02:35:30;;;;;;;0.00;0.00;;;;;;;;;;1743150;28;20203;-64
2023/10/13 02:36:35;;;;;;;0.00;0.00;;;;;;;;;;1743259;28;20582;-64
2023/10/13 02:37:27;;;;;;;0.00;0.00;;;;;;;;;;1743200;28;20264;-63
2023/10/13 02:38:26;;;;;;;0.00;0.00;;;;;;;;;;1743248;28;20208;-63
2023/10/13 02:39:24;;;;;;;0.00;0.00;;;;;;;;;;1743437;28;20565;-62
2023/10/13 02:40:23;;;;;;;0.00;0.00;;;;;;;;;;1743332;28;20653;-62
2023/10/13 02:41:20;;;;;;;0.00;0.00;;;;;;;;;;1745409;28;20210;-63
2023/10/13 02:42:23;;;;;;;0.00;0.00;;;;;;;;;;1742722;28;20210;-63
2023/10/13 02:43:14;;;;;;;0.00;0.00;;;;;;;;;;1743443;28;20213;-63
2023/10/13 02:44:07;;;;;;;0.00;0.00;;;;;;;;;;1739550;28;20314;-63
2023/10/13 02:44:58;;;;;;;0.00;0.00;;;;;;;;;;1741349;28;20211;-62
2023/10/13 02:45:57;;;;;;;0.00;0.00;;;;;;;;;;1741882;28;20288;-63
2023/10/13 02:46:50;;;;;;;0.00;0.00;;;;;;;;;;1741427;28;20199;-63
2023/10/13 02:47:43;;;;;;;0.00;0.00;;;;;;;;;;1745789;28;20213;-62
2023/10/13 02:48:40;;;;;;;0.00;0.00;;;;;;;;;;1740875;28;20234;-63
2023/10/13 02:49:34;;;;;;;0.00;0.00;;;;;;;;;;1743770;28;20210;-62
2023/10/13 02:50:25;;;;;;;0.00;0.00;;;;;;;;;;1742995;28;20230;-62
2023/10/13 02:51:17;;;;;;;0.00;0.00;;;;;;;;;;1743744;28;20725;-65
2023/10/13 02:52:08;;;;;;;0.00;0.00;;;;;;;;;;1742456;28;20202;-63
2023/10/13 02:52:59;;;;;;;0.00;0.00;;;;;;;;;;1742993;28;20688;-63
2023/10/13 02:53:52;;;;;;;0.00;0.00;;;;;;;;;;1741813;28;20255;-63
2023/10/13 02:54:47;;;;;;;0.00;0.00;;;;;;;;;;1742165;28;20230;-62
2023/10/13 02:55:39;;;;;;;0.00;0.00;;;;;;;;;;1738543;28;20207;-63
2023/10/13 02:56:30;;;;;;;0.00;0.00;;;;;;;;;;1743483;28;20271;-62
2023/10/13 02:57:23;;;;;;;0.00;0.00;;;;;;;;;;1743149;28;20501;-63
2023/10/13 02:58:15;;;;;;;0.00;0.00;;;;;;;;;;1743546;28;20672;-62
2023/10/13 02:59:06;;;;;;;0.00;0.00;;;;;;;;;;1741520;28;20309;-63
2023/10/13 02:59:57;;;;;;;0.00;0.00;;;;;;;;;;1742231;28;20555;-63
2023/10/13 03:00:49;;;;;;;0.00;0.00;;;;;;;;;;1741586;28;20213;-63
2023/10/13 03:01:41;;;;;;;0.00;0.00;;;;;;;;;;1742377;28;20310;-63
2023/10/13 03:02:32;;;;;;;0.00;0.00;;;;;;;;;;1743360;28;20244;-63
2023/10/13 03:03:23;;;;;;;0.00;0.00;;;;;;;;;;1743857;28;20198;-63
2023/10/13 03:04:23;;;;;;;0.00;0.00;;;;;;;;;;1745896;28;20551;-62
2023/10/13 03:05:16;;;;;;;0.00;0.00;;;;;;;;;;1742777;28;20681;-64
2023/10/13 03:06:07;;;;;;;0.00;0.00;;;;;;;;;;1745642;28;20253;-64
2023/10/13 03:06:59;;;;;;;0.00;0.00;;;;;;;;;;1741896;28;20398;-63
2023/10/13 03:07:50;;;;;;;0.00;0.00;;;;;;;;;;1742362;28;20744;-63
2023/10/13 03:08:43;;;;;;;0.00;0.00;;;;;;;;;;1742397;28;20574;-62
2023/10/13 03:09:37;;;;;;;0.00;0.00;;;;;;;;;;1743198;28;20571;-62
2023/10/13 03:10:29;;;;;;;0.00;0.00;;;;;;;;;;1743087;28;20205;-62
2023/10/13 03:11:24;;;;;;;0.00;0.00;;;;;;;;;;1743293;28;20722;-62
2023/10/13 03:12:15;;;;;;;0.00;0.00;;;;;;;;;;1743245;28;20209;-62
2023/10/13 03:13:08;;;;;;;0.00;0.00;;;;;;;;;;1742113;28;20673;-62
2023/10/13 03:14:06;;;;;;;0.00;0.00;;;;;;;;;;1740770;28;20658;-63
2023/10/13 03:15:09;;;;;;;0.00;0.00;;;;;;;;;;1740958;28;20644;-62
2023/10/13 03:16:00;;;;;;;0.00;0.00;;;;;;;;;;1742028;28;20254;-64
2023/10/13 03:16:54;;;;;;;0.00;0.00;;;;;;;;;;1741480;28;20242;-63
2023/10/13 03:17:46;;;;;;;0.00;0.00;;;;;;;;;;1741975;28;20788;-63
2023/10/13 03:18:38;;;;;;;0.00;0.00;;;;;;;;;;1742898;28;20213;-63
2023/10/13 03:19:32;;;;;;;0.00;0.00;;;;;;;;;;1743318;28;20210;-63
2023/10/13 03:20:24;;;;;;;0.00;0.00;;;;;;;;;;1743340;28;20206;-62
2023/10/13 03:21:28;;;;;;;0.00;0.00;;;;;;;;;;1743388;28;20728;-62
2023/10/13 03:22:30;;;;;;;0.00;0.00;;;;;;;;;;1745504;28;20712;-65
2023/10/13 03:23:22;;;;;;;0.00;0.00;;;;;;;;;;1743403;28;20232;-62
2023/10/13 03:24:13;;;;;;;0.00;0.00;;;;;;;;;;1744354;28;20618;-63
2023/10/13 03:25:06;;;;;;;0.00;0.00;;;;;;;;;;1742000;28;20320;-62
2023/10/13 03:26:04;;;;;;;0.00;0.00;;;;;;;;;;1741812;28;20231;-62
2023/10/13 03:26:59;;;;;;;0.00;0.00;;;;;;;;;;1741957;28;20210;-62
2023/10/13 03:28:01;;;;;;;0.00;0.00;;;;;;;;;;1744251;28;20554;-62
2023/10/13 03:28:52;;;;;;;0.00;0.00;;;;;;;;;;1742001;28;20752;-62
2023/10/13 03:29:44;;;;;;;0.00;0.00;;;;;;;;;;1742418;28;20207;-62
2023/10/13 03:30:35;;;;;;;0.00;0.00;;;;;;;;;;1743044;28;20770;-63
2023/10/13 03:31:28;;;;;;;0.00;0.00;;;;;;;;;;1743591;28;20591;-62
2023/10/13 03:32:20;;;;;;;0.00;0.00;;;;;;;;;;1743520;28;20206;-63
2023/10/13 03:33:13;;;;;;;0.00;0.00;;;;;;;;;;1742980;28;20238;-64
2023/10/13 03:34:05;;;;;;;0.00;0.00;;;;;;;;;;1741750;28;20206;-63
2023/10/13 03:35:11;;;;;;;0.00;0.00;;;;;;;;;;1742281;28;20210;-63
2023/10/13 03:36:05;;;;;;;0.00;0.00;;;;;;;;;;1745441;28;20593;-63
2023/10/13 03:36:57;;;;;;;0.00;0.00;;;;;;;;;;1742079;28;20207;-62
2023/10/13 03:37:49;;;;;;;0.00;0.00;;;;;;;;;;1742394;28;20289;-63
2023/10/13 03:38:40;;;;;;;0.00;0.00;;;;;;;;;;1742506;28;20210;-62
2023/10/13 03:39:32;;;;;;;0.00;0.00;;;;;;;;;;1743824;28;20202;-62
2023/10/13 03:40:36;;;;;;;0.00;0.00;;;;;;;;;;1743167;28;20217;-62
2023/10/13 03:41:30;;;;;;;0.00;0.00;;;;;;;;;;1743808;28;20628;-62
2023/10/13 03:42:23;;;;;;;0.00;0.00;;;;;;;;;;1743366;28;20285;-65
2023/10/13 03:43:16;;;;;;;0.00;0.00;;;;;;;;;;1743228;28;20808;-62
2023/10/13 03:44:09;;;;;;;0.00;0.00;;;;;;;;;;1739790;28;20645;-62
2023/10/13 03:45:02;;;;;;;0.00;0.00;;;;;;;;;;1740598;28;20231;-64
2023/10/13 03:46:00;;;;;;;0.00;0.00;;;;;;;;;;1742177;28;20230;-62
2023/10/13 03:46:55;;;;;;;0.00;0.00;;;;;;;;;;1741762;28;20261;-62
2023/10/13 03:47:46;;;;;;;0.00;0.00;;;;;;;;;;1745072;28;20240;-63
2023/10/13 03:48:51;;;;;;;0.00;0.00;;;;;;;;;;1742871;28;20206;-63
2023/10/13 03:49:43;;;;;;;0.00;0.00;;;;;;;;;;1742713;28;20210;-63
2023/10/13 03:50:36;;;;;;;0.00;0.00;;;;;;;;;;1738495;28;20203;-63
2023/10/13 03:51:31;;;;;;;0.00;0.00;;;;;;;;;;1743650;28;20210;-62
2023/10/13 03:52:22;;;;;;;0.00;0.00;;;;;;;;;;1743593;28;20550;-62
2023/10/13 03:53:13;;;;;;;0.00;0.00;;;;;;;;;;1743935;28;20209;-62
2023/10/13 03:54:08;;;;;;;0.00;0.00;;;;;;;;;;1742070;28;20206;-64
2023/10/13 03:54:59;;;;;;;0.00;0.00;;;;;;;;;;1742280;28;20208;-63
2023/10/13 03:56:07;;;;;;;0.00;0.00;;;;;;;;;;1741189;28;20199;-63
2023/10/13 03:57:04;;;;;;;0.00;0.00;;;;;;;;;;1742146;28;20207;-64
2023/10/13 03:57:59;;;;;;;0.00;0.00;;;;;;;;;;1742501;28;20246;-63
2023/10/13 03:58:53;;;;;;;0.00;0.00;;;;;;;;;;1742284;28;20203;-63
2023/10/13 03:59:48;;;;;;;0.00;0.00;;;;;;;;;;1742428;28;20650;-64
2023/10/13 04:00:42;;;;;;;0.00;0.00;;;;;;;;;;1742994;28;20245;-63
2023/10/13 04:01:43;;;;;;;0.00;0.00;;;;;;;;;;1743452;28;20260;-63
2023/10/13 04:02:36;;;;;;;0.00;0.00;;;;;;;;;;1740251;28;20248;-63
2023/10/13 04:03:38;;;;;;;0.00;0.00;;;;;;;;;;1744171;28;20221;-63
2023/10/13 04:04:34;;;;;;;0.00;0.00;;;;;;;;;;1743981;28;20261;-63
2023/10/13 04:05:38;;;;;;;0.00;0.00;;;;;;;;;;1743418;28;20245;-62
2023/10/13 04:06:51;;;;;;;0.00;0.00;;;;;;;;;;1744015;28;20558;-63
2023/10/13 04:08:46;;;;;;;0.00;0.00;;;;;;;;;;1738331;28;20195;-63
2023/10/13 04:13:37;;;;;;;0.00;0.00;;;;;;;;;;1743416;28;20196;-62
2023/10/13 04:16:14;;;;;;;0.00;0.00;;;;;;;;;;1742133;28;20245;-63
2023/10/13 04:17:13;;;;;;;0.00;0.00;;;;;;;;;;1751409;28;20321;-62
2023/10/13 04:18:14;;;;;;;0.00;0.00;;;;;;;;;;1752245;28;20217;-63
2023/10/13 04:19:09;;;;;;;0.00;0.00;;;;;;;;;;1752123;28;20210;-62
2023/10/13 04:20:26;;;;;;;0.00;0.00;;;;;;;;;;1758607;28;20201;-66
2023/10/13 04:21:39;;;;;;;0.00;0.00;;;;;;;;;;1757969;28;20251;-63
2023/10/13 04:23:17;;;;;;;0.00;0.00;;;;;;;;;;1758734;28;20201;-62
2023/10/13 04:25:01;;;;;;;0.00;0.00;;;;;;;;;;1759605;28;20250;-63
2023/10/13 04:26:08;;;;;;;0.00;0.00;;;;;;;;;;1759172;28;20201;-64
2023/10/13 04:28:34;;;;;;;0.00;0.00;;;;;;;;;;1759169;28;20390;-64
2023/10/13 04:29:28;;;;;;;0.00;0.00;;;;;;;;;;1758199;28;20249;-64
2023/10/13 04:30:26;;;;;;;0.00;0.00;;;;;;;;;;1759567;28;20216;-63
2023/10/13 04:32:33;;;;;;;0.00;0.00;;;;;;;;;;1748809;28;20224;-63
2023/10/13 04:33:35;;;;;;;0.00;0.00;;;;;;;;;;1759737;28;20319;-64
2023/10/13 04:34:28;;;;;;;0.00;0.00;;;;;;;;;;1758440;28;20220;-63
2023/10/13 04:35:24;;;;;;;0.00;0.00;;;;;;;;;;1759751;28;20223;-62
2023/10/13 04:36:16;;;;;;;0.00;0.00;;;;;;;;;;1757945;28;20592;-63
2023/10/13 04:37:22;;;;;;;0.00;0.00;;;;;;;;;;1759198;28;20201;-62
2023/10/13 04:38:19;;;;;;;0.00;0.00;;;;;;;;;;1759826;28;20780;-62
2023/10/13 04:39:16;;;;;;;0.00;0.00;;;;;;;;;;1759371;28;20679;-62
2023/10/13 04:40:09;;;;;;;0.00;0.00;;;;;;;;;;1759642;28;20610;-62
2023/10/13 04:41:02;;;;;;;0.00;0.00;;;;;;;;;;1759262;28;20224;-62
2023/10/13 04:42:10;;;;;;;0.00;0.00;;;;;;;;;;1759339;28;20642;-63
2023/10/13 04:43:04;;;;;;;0.00;0.00;;;;;;;;;;1759405;28;20209;-62
2023/10/13 04:43:55;;;;;;;0.00;0.00;;;;;;;;;;1759174;28;20616;-62
2023/10/13 04:44:48;;;;;;;0.00;0.00;;;;;;;;;;1759324;28;20292;-63
2023/10/13 04:45:46;;;;;;;0.00;0.00;;;;;;;;;;1759237;28;20213;-66
2023/10/13 04:47:07;;;;;;;0.00;0.00;;;;;;;;;;1754345;28;20607;-62
2023/10/13 04:48:13;;;;;;;0.00;0.00;;;;;;;;;;1758025;28;20621;-62
2023/10/13 04:49:10;;;;;;;0.00;0.00;;;;;;;;;;1758926;28;20288;-63
2023/10/13 04:50:21;;;;;;;0.00;0.00;;;;;;;;;;1759487;28;20209;-62
2023/10/13 04:51:34;;;;;;;0.00;0.00;;;;;;;;;;1759384;28;20212;-63
2023/10/13 04:53:59;;;;;;;0.00;0.00;;;;;;;;;;1754014;28;20618;-63
2023/10/13 04:54:49;;;;;;;0.00;0.00;;;;;;;;;;1758678;28;20695;-62
2023/10/13 04:55:59;;;;;;;0.00;0.00;;;;;;;;;;1756888;28;20206;-64
2023/10/13 04:56:59;;;;;;;0.00;0.00;;;;;;;;;;1755610;28;20303;-62
2023/10/13 04:58:00;;;;;;;0.00;0.00;;;;;;;;;;1759264;28;20205;-62
2023/10/13 05:02:00;;;;;;;0.00;0.00;;;;;;;;;;1745896;28;20225;-62
2023/10/13 05:03:01;;;;;;;0.00;0.00;;;;;;;;;;1745652;28;20246;-63
2023/10/13 05:04:08;;;;;;;0.00;0.00;;;;;;;;;;1757707;28;20203;-63
2023/10/13 05:05:21;;;;;;;0.00;0.00;;;;;;;;;;1761004;28;20213;-62
2023/10/13 05:44:37;;;;;;;0.00;0.00;;;;;;;;;;1758964;28;20238;-63
2023/10/13 05:47:12;;;;;;;0.00;0.00;;;;;;;;;;1749922;28;20259;-63
2023/10/13 05:48:13;;;;;;;0.00;0.00;;;;;;;;;;1758930;28;20211;-63
2023/10/13 05:49:29;;;;;;;0.00;0.00;;;;;;;;;;1759687;28;20205;-63
2023/10/13 05:50:47;;;;;;;0.00;0.00;;;;;;;;;;1760147;28;20744;-63
2023/10/13 05:51:47;;;;;;;0.00;0.00;;;;;;;;;;1754173;28;20209;-63
2023/10/13 06:28:56;;;;;;;0.00;0.00;;;;;;;;;;1759641;28;20332;-62
2023/10/13 06:29:48;;;;;;;0.00;0.00;;;;;;;;;;1758340;28;20804;-63
2023/10/13 06:30:39;;;;;;;0.00;0.00;;;;;;;;;;1759477;28;20205;-62
2023/10/13 06:31:34;;;;;;;0.00;0.00;;;;;;;;;;1759898;28;20576;-62
2023/10/13 06:32:27;;;;;;;0.00;0.00;;;;;;;;;;1759546;28;20197;-62
2023/10/13 06:33:19;;;;;;;0.00;0.00;;;;;;;;;;1759414;28;20408;-63
2023/10/13 06:34:15;;;;;;;0.00;0.00;;;;;;;;;;1759675;28;20648;-62
2023/10/13 06:35:08;;;;;;;0.00;0.00;;;;;;;;;;1759870;28;20209;-64
2023/10/13 06:35:59;;;;;;;0.00;0.00;;;;;;;;;;1759635;28;20240;-62
2023/10/13 06:36:54;;;;;;;0.00;0.00;;;;;;;;;;1759546;28;20201;-63
2023/10/13 06:37:46;;;;;;;0.00;0.00;;;;;;;;;;1759685;28;20204;-63
2023/10/13 06:38:37;;;;;;;0.00;0.00;;;;;;;;;;1759686;28;20216;-62
2023/10/13 06:39:35;;;;;;;0.00;0.00;;;;;;;;;;1760017;28;20201;-63
2023/10/13 06:40:33;;;;;;;0.00;0.00;;;;;;;;;;1758505;28;20216;-63
2023/10/13 06:41:30;;;;;;;0.00;0.00;;;;;;;;;;1759840;28;20209;-63
2023/10/13 06:42:21;;;;;;;0.00;0.00;;;;;;;;;;1759357;28;20565;-63
2023/10/13 06:43:16;;;;;;;0.00;0.00;;;;;;;;;;1759761;28;20290;-62
2023/10/13 06:44:14;;;;;;;0.00;0.00;;;;;;;;;;1758710;28;20243;-63
2023/10/13 06:45:08;;;;;;;0.00;0.00;;;;;;;;;;1759934;28;20253;-62
2023/10/13 06:46:01;;;;;;;0.00;0.00;;;;;;;;;;1759610;28;20707;-62
2023/10/13 06:46:53;;;;;;;0.00;0.00;;;;;;;;;;1759362;28;20261;-62
2023/10/13 06:47:45;;;;;;;0.00;0.00;;;;;;;;;;1759559;28;20247;-63
2023/10/13 06:48:40;;;;;;;0.00;0.00;;;;;;;;;;1759565;28;20292;-62
2023/10/13 06:49:38;;;;;;;0.00;0.00;;;;;;;;;;1760050;28;20213;-63
2023/10/13 06:50:33;;;;;;;0.00;0.00;;;;;;;;;;1758747;28;20201;-62
2023/10/13 06:51:30;;;;;;;0.00;0.00;;;;;;;;;;1759719;28;20205;-62
2023/10/13 06:52:22;;;;;;;0.00;0.00;;;;;;;;;;1759281;28;20242;-62
2023/10/13 06:53:14;;;;;;;0.00;0.00;;;;;;;;;;1759774;27;20370;-62
2023/10/13 06:54:11;;;;;;;0.00;0.00;;;;;;;;;;1759176;28;20300;-63
2023/10/13 06:55:05;;;;;;;0.00;0.00;;;;;;;;;;1759529;28;20201;-63
2023/10/13 06:55:58;;;;;;;0.00;0.00;;;;;;;;;;1756347;28;20231;-62
2023/10/13 06:56:52;;;;;;;0.00;0.00;;;;;;;;;;1759451;28;20212;-64
2023/10/13 06:57:46;;;;;;;0.00;0.00;;;;;;;;;;1759891;28;20727;-63
2023/10/13 06:58:42;;;;;;;0.00;0.00;;;;;;;;;;1755138;28;20724;-63
2023/10/13 06:59:36;;;;;;;0.00;0.00;;;;;;;;;;1760176;28;20725;-62
2023/10/13 07:00:29;;;;;;;0.00;0.00;;;;;;;;;;1759583;28;20205;-63
2023/10/13 07:01:22;;;;;;;0.00;0.00;;;;;;;;;;1759371;28;20205;-62
2023/10/13 07:02:21;;;;;;;0.00;0.00;;;;;;;;;;1759405;28;20311;-62
2023/10/13 07:03:17;;;;;;;0.00;0.00;;;;;;;;;;1752693;28;20681;-62
2023/10/13 07:04:13;;;;;;;0.00;0.00;;;;;;;;;;1752325;28;20300;-62